Time;durP1;ratioP1;P1;durP2;ratioP2;P2;SDS_P1;SDS_P2;PMS_P1;PMS_P2;Temp;Humidity;BMP_temperature;BMP_pressure;BME280_temperature;BME280_humidity;BME280_pressure;Samples;Min_cycle;Max_cycle;Signal;HPM_P1;HPM_P2
2021/04/24 00:00:20;;;;;;;5.78;3.45;;;;;;;4.22;63.16;98387.83;1642560;86;21602;-73
2021/04/24 00:02:51;;;;;;;4.62;2.62;;;;;;;4.19;63.48;98383.34;1665212;86;21167;-74
2021/04/24 00:05:25;;;;;;;7.65;3.22;;;;;;;4.16;64.08;98386.90;1663608;86;21194;-74
2021/04/24 00:08:00;;;;;;;6.42;2.77;;;;;;;4.14;63.26;98382.33;1663272;86;21147;-73
2021/04/24 00:10:32;;;;;;;3.80;2.33;;;;;;;4.12;63.88;98377.75;1663333;86;21143;-73
2021/04/24 00:13:01;;;;;;;6.55;2.77;;;;;;;4.11;63.47;98375.27;1663269;86;21591;-73
2021/04/24 00:15:29;;;;;;;4.33;2.75;;;;;;;4.10;63.92;98377.45;1663178;86;21226;-74
2021/04/24 00:17:59;;;;;;;4.35;2.70;;;;;;;4.08;63.17;98377.57;1662975;86;21163;-74
2021/04/24 00:20:28;;;;;;;3.47;2.70;;;;;;;4.10;63.63;98382.59;1663331;86;21175;-74
2021/04/24 00:22:56;;;;;;;4.72;2.33;;;;;;;4.11;63.63;98376.55;1663290;86;21178;-73
2021/04/24 00:25:24;;;;;;;5.37;2.22;;;;;;;4.09;63.43;98374.52;1663189;86;21200;-73
2021/04/24 00:27:52;;;;;;;7.55;2.30;;;;;;;4.11;62.60;98370.95;1663242;85;21186;-73
2021/04/24 00:30:21;;;;;;;3.65;2.40;;;;;;;4.13;61.92;98373.41;1663203;86;21626;-72
2021/04/24 00:32:49;;;;;;;4.95;2.25;;;;;;;4.15;62.89;98371.59;1635288;86;21179;-72
2021/04/24 00:35:19;;;;;;;3.12;2.05;;;;;;;4.15;63.13;98367.73;1663280;86;21211;-72
2021/04/24 00:37:49;;;;;;;5.53;2.42;;;;;;;4.19;61.37;98369.20;1663206;85;21624;-72
2021/04/24 00:40:19;;;;;;;5.25;2.02;;;;;;;4.20;63.18;98363.15;1663194;86;21178;-71
2021/04/24 00:42:49;;;;;;;5.65;2.15;;;;;;;4.21;62.96;98368.17;1663315;86;21143;-72
2021/04/24 00:45:23;;;;;;;3.85;2.52;;;;;;;4.25;62.69;98368.81;1663152;86;21496;-73
2021/04/24 00:47:53;;;;;;;4.28;2.17;;;;;;;4.26;62.59;98370.47;1663318;86;21203;-72
2021/04/24 00:50:26;;;;;;;4.90;2.47;;;;;;;4.28;61.98;98366.05;1663126;86;21175;-72
2021/04/24 00:52:54;;;;;;;3.33;1.87;;;;;;;4.29;62.76;98366.42;1663255;86;21200;-74
2021/04/24 00:55:22;;;;;;;3.65;2.58;;;;;;;4.34;62.06;98371.29;1663327;86;21151;-73
2021/04/24 00:57:51;;;;;;;4.03;2.40;;;;;;;4.34;62.28;98373.86;1663292;86;21194;-73
2021/04/24 01:00:24;;;;;;;8.63;2.35;;;;;;;4.33;61.76;98373.03;1663423;86;21178;-72
2021/04/24 01:02:54;;;;;;;2.10;1.52;;;;;;;4.34;61.46;98366.14;1663312;86;21143;-72
2021/04/24 01:05:29;;;;;;;6.90;2.05;;;;;;;4.34;61.72;98367.43;1663279;86;21171;-72
2021/04/24 01:07:57;;;;;;;2.27;1.55;;;;;;;4.33;61.58;98361.92;1657289;86;21247;-72
2021/04/24 01:13:20;;;;;;;3.42;1.65;;;;;;;4.26;62.18;98366.16;1732630;83;21249;-71
2021/04/24 01:15:50;;;;;;;3.77;2.40;;;;;;;4.19;62.45;98358.92;1732620;82;21170;-71
2021/04/24 01:18:19;;;;;;;4.70;2.40;;;;;;;4.17;62.10;98359.45;1732666;82;21190;-71
2021/04/24 01:20:48;;;;;;;2.95;2.37;;;;;;;4.11;62.64;98358.10;1732640;82;21154;-71
2021/04/24 01:23:18;;;;;;;3.10;1.95;;;;;;;4.10;61.89;98360.30;1732612;83;21206;-72
2021/04/24 01:25:46;;;;;;;4.28;2.35;;;;;;;4.06;62.55;98359.28;1708226;83;21166;-73
2021/04/24 01:28:14;;;;;;;3.42;2.22;;;;;;;4.02;62.23;98364.23;1732649;82;21170;-72
2021/04/24 01:30:45;;;;;;;7.12;2.58;;;;;;;3.95;63.84;98361.68;1732756;82;21174;-71
2021/04/24 01:33:15;;;;;;;6.17;2.20;;;;;;;3.88;63.48;98358.66;1732787;82;21174;-71
2021/04/24 01:35:44;;;;;;;3.62;2.17;;;;;;;3.85;63.05;98359.30;1732639;82;21209;-73
2021/04/24 01:38:13;;;;;;;3.33;1.98;;;;;;;3.78;64.09;98368.64;1732689;82;21115;-71
2021/04/24 01:40:41;;;;;;;6.45;2.67;;;;;;;3.76;62.87;98359.38;1732713;82;21123;-71
2021/04/24 01:43:11;;;;;;;2.70;1.62;;;;;;;3.71;64.25;98359.65;1732749;83;21158;-71
2021/04/24 01:45:39;;;;;;;5.58;2.20;;;;;;;3.65;64.74;98361.77;1732881;82;21170;-71
2021/04/24 01:48:10;;;;;;;3.50;2.22;;;;;;;3.59;65.21;98366.78;1732781;83;21594;-71
2021/04/24 01:50:42;;;;;;;3.50;1.90;;;;;;;3.53;65.41;98366.33;1732769;81;21198;-72
2021/04/24 01:53:18;;;;;;;2.90;1.67;;;;;;;3.48;65.68;98365.31;1732653;82;21162;-73
2021/04/24 01:55:47;;;;;;;5.20;2.35;;;;;;;3.42;65.73;98375.94;1732884;82;21245;-72
2021/04/24 01:58:19;;;;;;;3.30;2.30;;;;;;;3.38;66.52;98374.47;1732480;82;21119;-72
2021/04/24 02:00:53;;;;;;;3.67;1.85;;;;;;;3.34;66.73;98376.39;1732573;82;21155;-70
2021/04/24 02:03:21;;;;;;;2.85;1.92;;;;;;;3.32;66.60;98369.22;1731718;81;21226;-74
2021/04/24 02:05:50;;;;;;;3.05;2.15;;;;;;;3.32;65.74;98364.08;1732481;81;21619;-73
2021/04/24 02:08:22;;;;;;;2.80;2.10;;;;;;;3.33;65.27;98370.05;1732731;81;21135;-71
2021/04/24 02:10:54;;;;;;;2.42;1.75;;;;;;;3.32;63.51;98364.53;1732827;83;21565;-71
2021/04/24 02:13:33;;;;;;;5.37;2.62;;;;;;;3.31;64.66;98366.27;1732610;82;21219;-71
2021/04/24 02:16:05;;;;;;;4.50;3.10;;;;;;;3.28;64.71;98360.48;1732740;81;21568;-73
2021/04/24 02:18:33;;;;;;;4.50;1.75;;;;;;;3.26;65.42;98359.31;1732876;83;21162;-73
2021/04/24 02:21:04;;;;;;;2.67;1.52;;;;;;;3.23;66.03;98358.66;1732806;82;21142;-73
2021/04/24 02:23:38;;;;;;;2.52;1.87;;;;;;;3.21;64.37;98356.17;1732754;82;21166;-74
2021/04/24 02:26:08;;;;;;;6.95;1.50;;;;;;;3.20;65.62;98353.23;1708546;83;21166;-73
2021/04/24 02:28:36;;;;;;;1.82;1.62;;;;;;;3.22;64.55;98362.13;1732972;82;21162;-73
2021/04/24 02:31:04;;;;;;;3.55;1.92;;;;;;;3.20;63.63;98360.92;1732804;81;21625;-74
2021/04/24 02:33:32;;;;;;;4.28;2.20;;;;;;;3.20;63.45;98358.36;1732619;81;21162;-74
2021/04/24 02:36:01;;;;;;;2.47;2.27;;;;;;;3.19;64.95;98352.84;1732911;83;21198;-74
2021/04/24 02:38:33;;;;;;;1.90;1.47;;;;;;;3.15;65.56;98357.78;1732851;81;21134;-74
2021/04/24 02:41:04;;;;;;;4.05;1.92;;;;;;;3.12;65.60;98355.41;1732824;83;21265;-74
2021/04/24 02:43:33;;;;;;;4.15;1.47;;;;;;;3.10;64.12;98354.67;1732608;82;21150;-73
2021/04/24 02:46:01;;;;;;;2.43;1.80;;;;;;;3.11;65.98;98361.92;1732704;81;21203;-74
2021/04/24 02:48:29;;;;;;;3.62;1.75;;;;;;;3.10;65.14;98355.13;1732791;82;21151;-74
2021/04/24 02:50:57;;;;;;;3.87;1.70;;;;;;;3.10;65.77;98350.83;1732779;81;21165;-73
2021/04/24 02:53:24;;;;;;;4.60;1.70;;;;;;;3.13;65.12;98349.81;1732884;81;21183;-74
2021/04/24 02:55:52;;;;;;;3.83;1.72;;;;;;;3.16;63.22;98350.47;1732830;82;21162;-73
2021/04/24 02:58:20;;;;;;;4.92;1.70;;;;;;;3.18;63.67;98346.09;1732678;82;21154;-74
2021/04/24 03:00:48;;;;;;;5.80;2.45;;;;;;;3.20;64.06;98344.25;1732730;82;21167;-73
2021/04/24 03:03:17;;;;;;;2.02;1.32;;;;;;;3.21;64.70;98358.73;1732788;83;21154;-73
2021/04/24 03:05:44;;;;;;;2.72;1.52;;;;;;;3.19;63.96;98350.77;1732904;83;21516;-73
2021/04/24 03:08:13;;;;;;;3.42;1.62;;;;;;;3.18;63.92;98352.95;1732698;83;21193;-73
2021/04/24 03:10:42;;;;;;;3.37;1.75;;;;;;;3.15;64.68;98355.22;1732656;82;21170;-74
2021/04/24 03:13:11;;;;;;;2.55;1.50;;;;;;;3.13;64.87;98365.22;1720698;82;21604;-73
2021/04/24 03:15:39;;;;;;;2.70;1.40;;;;;;;3.10;64.27;98356.41;1714356;82;21588;-73
2021/04/24 03:18:07;;;;;;;6.40;2.25;;;;;;;3.08;63.20;98364.19;1714492;82;21168;-72
2021/04/24 03:20:35;;;;;;;3.30;1.95;;;;;;;3.06;63.64;98366.48;1714481;84;21210;-74
2021/04/24 03:23:04;;;;;;;2.85;2.05;;;;;;;3.01;64.49;98374.42;1714474;83;21152;-74
2021/04/24 03:25:32;;;;;;;4.90;1.95;;;;;;;2.97;64.37;98377.25;1714394;82;21191;-73
2021/04/24 03:27:59;;;;;;;2.95;1.98;;;;;;;2.92;64.38;98381.83;1714314;84;21191;-73
2021/04/24 03:30:28;;;;;;;3.83;2.52;;;;;;;2.87;63.92;98384.64;1714554;84;21172;-73
2021/04/24 03:32:56;;;;;;;6.33;2.35;;;;;;;2.83;63.79;98387.00;1714427;83;21139;-73
2021/04/24 03:35:25;;;;;;;3.65;1.90;;;;;;;2.79;63.67;98388.91;1714462;83;21557;-73
2021/04/24 03:37:53;;;;;;;4.53;2.22;;;;;;;2.75;63.82;98385.31;1714372;83;21147;-74
2021/04/24 03:40:21;;;;;;;4.75;2.33;;;;;;;2.72;63.50;98390.61;1714486;83;21202;-74
2021/04/24 03:42:50;;;;;;;3.35;2.47;;;;;;;2.68;64.82;98386.11;1714387;84;21134;-73
2021/04/24 03:45:19;;;;;;;3.05;2.33;;;;;;;2.63;64.27;98388.09;1714436;83;21557;-72
2021/04/24 03:47:51;;;;;;;5.22;2.12;;;;;;;2.62;63.67;98392.00;1714411;82;21191;-74
2021/04/24 03:50:21;;;;;;;5.33;2.83;;;;;;;2.59;65.06;98397.30;1714373;83;21849;-73
2021/04/24 03:52:50;;;;;;;2.65;2.20;;;;;;;2.56;64.46;98398.77;1714306;83;21170;-73
2021/04/24 03:55:20;;;;;;;2.45;2.05;;;;;;;2.54;63.46;98403.95;1714349;84;21195;-72
2021/04/24 03:57:49;;;;;;;2.90;1.52;;;;;;;2.52;64.15;98407.08;1714298;82;21180;-73
2021/04/24 04:00:21;;;;;;;3.80;2.37;;;;;;;2.53;63.90;98409.98;1714330;83;21158;-73
2021/04/24 04:02:57;;;;;;;2.65;2.30;;;;;;;2.52;64.24;98417.33;1714225;82;21151;-73
2021/04/24 04:05:30;;;;;;;2.95;2.12;;;;;;;2.51;63.94;98419.51;1714459;84;21637;-73
2021/04/24 04:07:59;;;;;;;3.42;1.98;;;;;;;2.53;63.98;98425.84;1714443;83;21159;-73
2021/04/24 04:10:28;;;;;;;4.22;2.50;;;;;;;2.53;62.79;98424.09;1714201;84;21156;-73
2021/04/24 04:12:58;;;;;;;3.98;1.77;;;;;;;2.55;63.49;98431.25;1714267;82;21171;-73
2021/04/24 04:15:28;;;;;;;1.67;1.45;;;;;;;2.57;62.84;98426.06;1714351;83;21151;-74
2021/04/24 04:18:06;;;;;;;8.25;2.75;;;;;;;2.59;62.52;98439.61;1714523;84;21175;-71
2021/04/24 04:20:39;;;;;;;2.22;1.37;;;;;;;2.61;65.54;98437.77;1710273;82;21620;-73
2021/04/24 04:23:09;;;;;;;2.77;1.67;;;;;;;2.63;64.29;98432.96;1714433;84;21112;-71
2021/04/24 04:25:39;;;;;;;3.27;2.10;;;;;;;2.67;65.36;98441.31;1714338;83;21194;-73
2021/04/24 04:28:08;;;;;;;2.30;1.72;;;;;;;2.72;63.64;98443.19;1714218;83;21164;-73
2021/04/24 04:30:37;;;;;;;3.87;1.85;;;;;;;2.75;65.21;98442.56;1714307;82;21226;-73
2021/04/24 04:33:07;;;;;;;3.37;2.00;;;;;;;2.78;65.99;98448.80;1714561;82;21159;-74
2021/04/24 04:35:38;;;;;;;2.17;1.77;;;;;;;2.83;64.58;98448.11;1710019;83;21176;-73
2021/04/24 04:38:06;;;;;;;2.45;1.95;;;;;;;2.88;65.50;98455.53;1714303;83;21595;-75
2021/04/24 04:40:35;;;;;;;2.02;1.72;;;;;;;2.90;67.25;98451.16;1714533;84;21515;-73
2021/04/24 04:43:05;;;;;;;2.65;1.92;;;;;;;2.95;66.49;98450.46;1714612;83;21147;-73
2021/04/24 04:45:33;;;;;;;7.00;2.10;;;;;;;2.99;66.48;98457.53;1714841;82;21222;-72
2021/04/24 04:48:02;;;;;;;6.92;2.20;;;;;;;3.04;66.11;98456.35;1714484;83;21595;-74
2021/04/24 04:50:35;;;;;;;3.72;2.05;;;;;;;3.12;66.02;98454.65;1714476;83;21184;-73
2021/04/24 04:53:03;;;;;;;3.42;2.15;;;;;;;3.13;66.31;98450.72;1714409;82;21179;-72
2021/04/24 04:55:31;;;;;;;2.42;2.05;;;;;;;3.19;66.25;98449.57;1714459;83;21231;-71
2021/04/24 04:57:59;;;;;;;3.98;2.37;;;;;;;3.25;66.13;98453.90;1714321;82;21139;-72
2021/04/24 05:00:28;;;;;;;3.12;2.08;;;;;;;3.32;65.07;98453.09;1714374;82;21127;-71
2021/04/24 05:02:56;;;;;;;3.47;2.02;;;;;;;3.37;65.07;98458.80;1714349;82;21624;-74
2021/04/24 05:05:26;;;;;;;5.90;1.42;;;;;;;3.45;64.41;98451.95;1714384;83;21600;-73
2021/04/24 05:07:53;;;;;;;3.62;2.35;;;;;;;3.56;64.26;98447.86;1714307;82;21168;-73
2021/04/24 05:10:27;;;;;;;4.28;1.60;;;;;;;3.69;63.72;98453.96;1714303;83;21168;-73
2021/04/24 05:12:55;;;;;;;3.27;1.52;;;;;;;3.82;62.98;98454.06;1714148;82;21163;-74
2021/04/24 05:15:23;;;;;;;3.47;2.42;;;;;;;3.92;63.80;98451.34;1714404;82;21557;-74
2021/04/24 05:17:52;;;;;;;3.22;1.57;;;;;;;4.04;63.41;98452.36;1714370;84;21197;-73
2021/04/24 05:20:20;;;;;;;7.05;2.40;;;;;;;4.12;63.01;98448.44;1714186;82;21163;-73
2021/04/24 05:22:48;;;;;;;2.35;1.95;;;;;;;4.20;63.03;98455.69;1714351;84;21619;-73
2021/04/24 05:25:18;;;;;;;7.55;2.50;;;;;;;4.29;62.70;98454.66;1714491;82;21195;-73
2021/04/24 05:27:47;;;;;;;2.20;1.55;;;;;;;4.41;62.66;98453.10;1714357;82;21557;-73
2021/04/24 05:30:17;;;;;;;2.98;2.10;;;;;;;4.54;62.28;98459.17;1714474;83;21176;-74
2021/04/24 05:32:46;;;;;;;3.40;2.02;;;;;;;4.67;62.12;98456.20;1714268;82;21187;-73
2021/04/24 05:35:15;;;;;;;1.72;1.10;;;;;;;4.80;61.64;98451.13;1714243;82;21183;-73
2021/04/24 05:37:44;;;;;;;5.28;1.80;;;;;;;4.95;60.75;98456.60;1714260;83;21161;-73
2021/04/24 05:40:13;;;;;;;5.95;1.40;;;;;;;5.09;60.34;98457.05;1714483;83;21151;-73
2021/04/24 05:42:41;;;;;;;2.65;1.30;;;;;;;5.22;59.85;98458.73;1714377;82;21195;-73
2021/04/24 05:45:13;;;;;;;3.37;1.75;;;;;;;5.39;59.26;98463.27;1714443;82;21544;-73
2021/04/24 05:47:45;;;;;;;3.17;1.98;;;;;;;5.55;58.96;98461.37;1714554;83;21209;-74
2021/04/24 05:50:17;;;;;;;2.77;1.55;;;;;;;5.69;59.00;98462.57;1714481;82;21683;-74
2021/04/24 05:52:45;;;;;;;1.65;1.37;;;;;;;5.84;58.67;98458.98;1727968;83;21302;-74
2021/04/24 05:55:35;;;;;;;1.82;1.60;;;;;;;5.98;58.30;98463.27;1727779;83;21231;-74
2021/04/24 05:58:04;;;;;;;7.83;2.30;;;;;;;6.05;58.16;98463.22;1775308;81;21155;-74
2021/04/24 06:00:32;;;;;;;4.05;2.30;;;;;;;6.10;58.01;98462.46;1775303;81;21113;-74
2021/04/24 06:03:00;;;;;;;6.42;2.92;;;;;;;6.19;57.89;98467.81;1775089;81;21120;-72
2021/04/24 06:05:29;;;;;;;9.90;5.15;;;;;;;6.31;57.75;98461.46;1775312;81;21144;-71
2021/04/24 06:07:59;;;;;;;6.75;3.22;;;;;;;6.42;57.39;98453.35;1773338;81;21576;-72
2021/04/24 06:10:27;;;;;;;5.00;2.95;;;;;;;6.49;57.53;98449.45;1775311;81;21191;-72
2021/04/24 06:12:54;;;;;;;3.52;2.15;;;;;;;6.69;57.32;98452.73;1775445;81;21167;-71
2021/04/24 06:15:23;;;;;;;6.70;1.87;;;;;;;6.89;56.87;98451.34;1774768;81;21187;-71
2021/04/24 06:17:51;;;;;;;9.53;1.82;;;;;;;7.10;56.28;98450.31;1775288;81;21155;-68
2021/04/24 06:20:19;;;;;;;3.33;1.77;;;;;;;7.33;57.83;98444.78;1766510;81;21251;-70
2021/04/24 06:22:47;;;;;;;2.60;1.65;;;;;;;7.58;59.37;98440.79;1775370;81;21124;-70
2021/04/24 06:25:18;;;;;;;3.62;1.70;;;;;;;7.81;55.92;98438.63;1775062;81;21148;-70
2021/04/24 06:27:47;;;;;;;3.15;2.00;;;;;;;8.04;57.83;98439.02;1775428;81;21147;-71
2021/04/24 06:30:18;;;;;;;3.22;1.90;;;;;;;8.29;54.83;98438.47;1775288;81;21159;-69
2021/04/24 06:32:48;;;;;;;4.10;1.65;;;;;;;8.49;54.93;98435.19;1775567;81;21180;-70
2021/04/24 06:35:17;;;;;;;2.50;2.25;;;;;;;8.68;54.03;98431.53;1775702;81;21148;-74
2021/04/24 06:37:45;;;;;;;4.75;3.17;;;;;;;8.82;51.76;98434.34;1775897;81;21564;-73
2021/04/24 06:40:16;;;;;;;51.80;22.05;;;;;;;8.96;50.26;98435.38;1775800;81;21560;-72
2021/04/24 06:42:44;;;;;;;7.42;4.33;;;;;;;9.13;52.25;98440.52;1775372;81;21148;-73
2021/04/24 06:45:14;;;;;;;12.00;7.33;;;;;;;9.16;49.72;98438.51;1775335;81;21140;-73
2021/04/24 06:47:43;;;;;;;7.10;4.60;;;;;;;9.26;49.69;98434.22;1775521;81;21152;-68
2021/04/24 06:50:12;;;;;;;2.62;2.02;;;;;;;9.35;50.81;98436.56;1774963;81;21163;-68
2021/04/24 06:52:41;;;;;;;4.42;1.85;;;;;;;9.46;49.61;98431.33;1775163;81;21175;-68
2021/04/24 06:55:17;;;;;;;3.72;2.00;;;;;;;9.67;48.89;98431.36;1775272;81;21528;-73
2021/04/24 06:57:47;;;;;;;4.03;2.00;;;;;;;9.66;47.97;98437.02;1768335;80;21171;-73
2021/04/24 07:00:17;;;;;;;4.72;1.70;;;;;;;9.72;48.02;98432.64;1767333;81;21184;-73
2021/04/24 07:02:45;;;;;;;7.33;1.95;;;;;;;9.93;46.80;98430.03;1767028;81;21270;-70
2021/04/24 07:05:14;;;;;;;2.37;1.75;;;;;;;10.04;44.58;98437.73;1767181;81;21143;-70
2021/04/24 07:07:42;;;;;;;3.15;1.70;;;;;;;10.27;46.69;98431.47;1766475;81;21330;-70
2021/04/24 07:10:32;;;;;;;1.85;1.20;;;;;;;10.47;44.18;98432.38;1766942;81;21569;-76
2021/04/24 07:13:00;;;;;;;5.55;2.00;;;;;;;10.59;44.50;98432.64;1683039;85;21148;-75
2021/04/24 07:15:28;;;;;;;4.15;1.42;;;;;;;10.63;41.72;98433.20;1683224;85;21171;-75
2021/04/24 07:17:56;;;;;;;2.77;1.57;;;;;;;10.66;41.09;98432.95;1683241;84;21664;-75
2021/04/24 07:20:24;;;;;;;2.08;1.50;;;;;;;10.63;41.73;98430.59;1683275;85;21301;-75
2021/04/24 07:22:53;;;;;;;4.15;1.30;;;;;;;10.67;39.25;98428.09;1683194;85;21208;-71
2021/04/24 07:25:21;;;;;;;1.45;0.93;;;;;;;10.91;42.05;98429.87;1682874;84;21132;-71
2021/04/24 07:27:49;;;;;;;0.95;0.60;;;;;;;11.09;42.45;98437.35;1682869;84;21168;-71
2021/04/24 07:30:19;;;;;;;1.87;1.10;;;;;;;11.24;41.50;98434.73;1682879;84;21608;-72
2021/04/24 07:32:47;;;;;;;2.52;1.92;;;;;;;11.33;38.76;98432.59;1682992;85;21357;-71
2021/04/24 07:35:16;;;;;;;2.67;1.50;;;;;;;11.42;38.58;98428.37;1682965;85;21549;-73
2021/04/24 07:37:44;;;;;;;1.98;1.25;;;;;;;11.52;38.58;98430.48;1682880;85;21187;-72
2021/04/24 07:40:13;;;;;;;1.40;0.93;;;;;;;11.58;38.57;98429.95;1682988;85;21152;-70
2021/04/24 07:42:43;;;;;;;4.15;1.50;;;;;;;11.77;41.45;98431.73;1683048;85;21206;-73
2021/04/24 07:45:23;;;;;;;4.62;1.47;;;;;;;11.78;38.30;98429.02;1682830;85;21144;-72
2021/04/24 07:47:51;;;;;;;1.87;1.32;;;;;;;11.81;39.52;98428.73;1784059;80;21628;-72
2021/04/24 07:50:19;;;;;;;4.12;2.08;;;;;;;11.96;38.47;98421.77;1783867;80;21152;-72
2021/04/24 07:52:47;;;;;;;2.90;1.57;;;;;;;11.96;37.51;98425.68;1784006;80;21240;-73
2021/04/24 07:55:15;;;;;;;3.92;1.50;;;;;;;12.05;37.58;98422.25;1784024;80;21148;-73
2021/04/24 07:57:43;;;;;;;1.62;1.22;;;;;;;11.99;38.60;98419.71;1783963;80;21594;-72
2021/04/24 08:00:14;;;;;;;2.95;1.35;;;;;;;12.20;39.04;98421.66;1784072;80;21161;-72
2021/04/24 08:02:41;;;;;;;1.52;0.98;;;;;;;12.15;37.62;98421.73;1783953;80;21204;-72
2021/04/24 08:05:11;;;;;;;2.40;1.10;;;;;;;12.34;37.26;98425.58;1784111;80;21117;-72
2021/04/24 08:07:41;;;;;;;2.80;1.20;;;;;;;12.44;38.61;98428.98;1780903;80;21191;-73
2021/04/24 08:10:09;;;;;;;5.87;1.40;;;;;;;12.45;35.61;98426.69;1783822;80;21149;-72
2021/04/24 08:12:39;;;;;;;2.33;1.50;;;;;;;12.54;36.79;98424.55;1762440;80;21177;-72
2021/04/24 08:15:10;;;;;;;2.37;1.10;;;;;;;12.50;34.92;98424.49;1784210;80;21148;-73
2021/04/24 08:17:38;;;;;;;2.12;1.40;;;;;;;12.45;35.73;98420.69;1784155;80;21184;-73
2021/04/24 08:20:08;;;;;;;2.40;1.30;;;;;;;12.48;35.31;98413.88;1783824;80;21169;-73
2021/04/24 08:22:36;;;;;;;5.92;2.12;;;;;;;12.27;35.48;98412.31;1783777;80;21144;-72
2021/04/24 08:25:06;;;;;;;2.02;1.27;;;;;;;12.43;35.26;98419.52;1783803;80;21152;-72
2021/04/24 08:27:35;;;;;;;3.08;1.40;;;;;;;12.56;35.29;98418.72;1783882;80;21585;-72
2021/04/24 08:30:07;;;;;;;1.32;0.90;;;;;;;12.83;36.73;98412.69;1783821;80;21211;-72
2021/04/24 08:32:37;;;;;;;2.75;1.42;;;;;;;12.86;35.42;98411.09;1784007;80;21141;-72
2021/04/24 08:35:07;;;;;;;2.92;1.60;;;;;;;12.84;34.79;98411.22;1783981;80;21137;-73
2021/04/24 08:37:36;;;;;;;2.02;1.50;;;;;;;12.70;34.61;98410.42;1783937;80;21640;-74
2021/04/24 08:40:09;;;;;;;4.85;1.70;;;;;;;12.96;36.14;98414.45;1783979;80;21557;-72
2021/04/24 08:42:39;;;;;;;3.77;1.70;;;;;;;13.25;35.27;98404.69;1783754;80;21137;-71
2021/04/24 08:45:17;;;;;;;1.45;1.05;;;;;;;13.43;35.80;98412.98;1783978;80;21156;-72
2021/04/24 08:47:49;;;;;;;2.12;1.27;;;;;;;13.76;36.37;98408.37;1803497;79;21151;-72
2021/04/24 08:50:26;;;;;;;2.15;1.30;;;;;;;13.92;34.60;98411.59;1806280;78;21154;-72
2021/04/24 08:52:56;;;;;;;1.95;1.17;;;;;;;13.93;33.53;98408.81;1806339;79;21163;-72
2021/04/24 08:55:28;;;;;;;2.55;1.40;;;;;;;14.16;33.52;98396.88;1806467;79;21180;-72
2021/04/24 08:57:57;;;;;;;2.47;1.52;;;;;;;14.18;34.00;98401.97;1806233;79;21206;-72
2021/04/24 09:00:31;;;;;;;1.87;1.17;;;;;;;14.14;31.88;98396.72;1806336;79;21151;-73
2021/04/24 09:03:01;;;;;;;4.78;1.50;;;;;;;14.50;31.36;98393.52;1806158;78;21695;-77
2021/04/24 09:05:29;;;;;;;2.27;1.35;;;;;;;14.69;30.86;98386.72;1806481;79;21177;-76
2021/04/24 09:08:01;;;;;;;3.65;1.57;;;;;;;15.04;33.04;98385.20;1806508;79;21146;-76
2021/04/24 09:10:35;;;;;;;10.13;1.50;;;;;;;15.40;33.36;98379.69;1806373;79;21128;-76
2021/04/24 09:13:05;;;;;;;2.22;1.30;;;;;;;15.42;30.74;98378.53;1806280;78;21270;-75
2021/04/24 09:15:33;;;;;;;1.55;0.93;;;;;;;15.58;30.98;98381.19;1806519;79;21321;-76
2021/04/24 09:18:08;;;;;;;1.82;1.05;;;;;;;15.61;33.18;98386.09;1806199;78;21269;-76
2021/04/24 09:21:14;;;;;;;3.95;1.10;;;;;;;15.64;31.78;98376.59;1806455;79;21147;-76
2021/04/24 09:23:42;;;;;;;1.45;0.95;;;;;;;15.90;29.37;98384.28;1637566;86;21187;-76
2021/04/24 09:26:13;;;;;;;2.22;1.10;;;;;;;16.31;28.21;98373.69;1661859;86;21605;-76
2021/04/24 09:28:45;;;;;;;3.10;1.55;;;;;;;16.72;30.52;98370.46;1661735;86;21205;-77
2021/04/24 09:31:24;;;;;;;1.35;0.95;;;;;;;17.28;31.72;98366.17;1661829;86;21613;-77
2021/04/24 09:33:55;;;;;;;2.98;0.98;;;;;;;17.89;32.30;98367.84;1661694;86;21213;-77
2021/04/24 09:36:36;;;;;;;4.12;1.10;;;;;;;18.32;32.61;98362.30;1661734;86;21190;-77
2021/04/24 09:39:09;;;;;;;2.47;1.00;;;;;;;18.76;25.89;98358.31;1661984;85;21189;-77
2021/04/24 09:41:41;;;;;;;1.57;1.17;;;;;;;18.88;27.40;98355.52;1661624;85;21611;-78
2021/04/24 09:44:14;;;;;;;3.62;1.20;;;;;;;19.12;25.11;98353.05;1661714;86;21261;-74
2021/04/24 09:46:57;;;;;;;0.90;0.78;;;;;;;19.12;28.78;98350.41;1661708;86;21300;-76
2021/04/24 09:49:33;;;;;;;3.30;1.82;;;;;;;19.15;26.81;98342.13;1661956;85;21162;-74
2021/04/24 09:52:05;;;;;;;3.02;1.15;;;;;;;18.21;25.55;98344.32;1661915;86;21205;-76
2021/04/24 09:54:46;;;;;;;3.62;1.15;;;;;;;18.85;26.02;98347.18;1661740;86;21193;-77
2021/04/24 09:57:22;;;;;;;3.45;1.00;;;;;;;19.00;28.36;98340.55;1637501;86;21225;-76
2021/04/24 09:59:57;;;;;;;1.72;1.35;;;;;;;18.95;25.46;98339.79;1661834;86;21213;-79
2021/04/24 10:02:42;;;;;;;3.22;1.37;;;;;;;18.12;23.06;98334.92;1661854;86;21189;-78
2021/04/24 10:05:20;;;;;;;2.00;1.03;;;;;;;18.65;23.78;98335.11;1662039;86;21208;-76
2021/04/24 10:07:51;;;;;;;1.30;0.90;;;;;;;19.04;22.23;98327.33;1661793;86;21221;-77
2021/04/24 10:10:38;;;;;;;2.67;1.17;;;;;;;18.91;22.08;98329.32;1661866;86;21161;-75
2021/04/24 10:13:09;;;;;;;2.52;1.12;;;;;;;19.26;24.94;98327.14;1661612;86;21181;-75
2021/04/24 10:15:48;;;;;;;30.60;17.10;;;;;;;19.33;22.72;98320.64;1661885;86;21255;-73
2021/04/24 10:18:17;;;;;;;33.35;17.00;;;;;;;19.50;23.61;98317.25;1661658;86;21190;-70
2021/04/24 10:20:47;;;;;;;4.78;2.98;;;;;;;19.97;22.80;98321.84;1661945;86;21194;-80
2021/04/24 10:23:16;;;;;;;1.72;1.30;;;;;;;20.51;22.91;98307.45;1671908;85;21208;-77
2021/04/24 10:25:44;;;;;;;2.25;1.40;;;;;;;21.20;26.38;98316.82;1678601;85;21189;-77
2021/04/24 10:28:13;;;;;;;2.95;1.25;;;;;;;20.79;20.79;98312.11;1678781;85;21157;-76
2021/04/24 10:30:41;;;;;;;5.17;1.42;;;;;;;21.74;24.20;98308.69;1653827;85;21601;-74
2021/04/24 10:33:09;;;;;;;2.55;1.45;;;;;;;21.47;19.92;98302.30;1678675;85;21370;-76
2021/04/24 10:35:37;;;;;;;1.60;1.17;;;;;;;21.58;20.39;98310.94;1678878;85;21192;-72
2021/04/24 10:38:07;;;;;;;2.47;1.20;;;;;;;21.82;23.28;98307.66;1679000;85;21188;-73
2021/04/24 10:40:45;;;;;;;1.92;1.22;;;;;;;20.50;20.96;98305.34;1678698;85;21233;-73
2021/04/24 10:43:20;;;;;;;2.37;1.20;;;;;;;20.54;22.47;98297.34;1678546;85;21173;-73
2021/04/24 10:45:48;;;;;;;2.05;1.27;;;;;;;21.21;21.61;98298.62;1678946;85;21613;-74
2021/04/24 10:48:26;;;;;;;2.02;1.80;;;;;;;20.52;20.40;98289.29;1678869;85;21752;-73
2021/04/24 10:50:54;;;;;;;1.72;1.32;;;;;;;19.84;21.44;98287.81;1678837;85;21778;-74
2021/04/24 10:53:30;;;;;;;2.90;1.15;;;;;;;20.85;21.26;98293.64;1678673;85;21169;-72
2021/04/24 10:56:01;;;;;;;2.22;1.30;;;;;;;21.16;19.95;98285.73;1678770;85;21145;-73
2021/04/24 10:58:32;;;;;;;1.55;1.00;;;;;;;21.64;21.00;98281.84;1678701;85;21224;-72
2021/04/24 11:01:03;;;;;;;2.02;1.40;;;;;;;21.91;22.25;98283.97;1678791;85;21665;-78
2021/04/24 11:03:51;;;;;;;2.83;1.35;;;;;;;21.89;19.92;98284.66;1678719;85;21586;-73
2021/04/24 11:06:23;;;;;;;1.67;1.07;;;;;;;22.42;21.74;98284.52;1678895;85;21188;-72
2021/04/24 11:09:18;;;;;;;1.90;1.17;;;;;;;22.83;19.04;98270.91;1678738;85;21337;-72
2021/04/24 11:11:49;;;;;;;2.90;1.30;;;;;;;22.83;19.40;98276.21;1678768;84;21231;-74
2021/04/24 11:14:19;;;;;;;2.10;1.00;;;;;;;23.01;21.06;98273.64;1678724;85;21648;-73
2021/04/24 11:16:47;;;;;;;2.10;1.40;;;;;;;23.11;20.58;98268.16;1678684;85;21327;-72
2021/04/24 11:19:45;;;;;;;1.82;1.22;;;;;;;21.63;20.05;98260.39;1678354;84;21878;-73
2021/04/24 11:22:43;;;;;;;1.42;1.00;;;;;;;22.49;22.30;98266.80;1678373;85;21172;-74
2021/04/24 11:25:30;;;;;;;1.72;1.17;;;;;;;23.38;20.73;98263.49;1678488;85;21220;-72
2021/04/24 11:28:10;;;;;;;1.40;1.00;;;;;;;23.40;18.27;98267.23;1678645;84;21213;-74
2021/04/24 11:31:04;;;;;;;3.15;1.27;;;;;;;23.62;18.63;98275.11;1678645;85;21180;-72
2021/04/24 11:33:48;;;;;;;1.45;1.32;;;;;;;22.80;17.85;98268.70;1678922;85;21251;-72
2021/04/24 11:36:22;;;;;;;3.37;1.30;;;;;;;22.14;18.25;98265.80;1679391;85;21185;-75
2021/04/24 11:39:06;;;;;;;2.50;1.20;;;;;;;21.81;18.73;98269.52;1679249;84;21181;-74
2021/04/24 11:41:46;;;;;;;2.17;1.52;;;;;;;22.90;19.34;98257.94;1678654;85;21697;-72
2021/04/24 11:44:40;;;;;;;1.90;1.10;;;;;;;22.82;19.07;98260.83;1678538;85;21313;-73
2021/04/24 11:47:08;;;;;;;2.70;1.32;;;;;;;23.63;18.25;98266.14;1630251;87;21307;-69
2021/04/24 11:49:50;;;;;;;1.80;1.22;;;;;;;24.11;17.55;98263.09;1687058;84;21195;-71
2021/04/24 11:52:18;;;;;;;2.70;1.55;;;;;;;25.00;18.47;98258.41;1687093;85;21195;-71
2021/04/24 11:54:46;;;;;;;1.92;1.50;;;;;;;25.05;17.30;98256.39;1687067;84;21173;-69
2021/04/24 11:57:19;;;;;;;3.15;1.10;;;;;;;25.74;17.47;98248.20;1687018;85;21687;-72
2021/04/24 11:59:49;;;;;;;2.98;1.20;;;;;;;24.85;16.69;98250.56;1687014;85;21889;-70